sensor_id;sensor_type;location;lat;lon;timestamp;P1;durP1;ratioP1;P2;durP2;ratioP2
68310;SDS011;55157;51.036;17.058;2023-07-09T00:01:58;11.07;;;5.28;;
68310;SDS011;55157;51.036;17.058;2023-07-09T00:04:24;12.10;;;5.93;;
68310;SDS011;55157;51.036;17.058;2023-07-09T00:06:49;9.07;;;5.05;;
68310;SDS011;55157;51.036;17.058;2023-07-09T00:09:16;8.35;;;5.07;;
68310;SDS011;55157;51.036;17.058;2023-07-09T00:11:42;8.30;;;5.38;;
68310;SDS011;55157;51.036;17.058;2023-07-09T00:14:08;7.80;;;5.38;;
68310;SDS011;55157;51.036;17.058;2023-07-09T00:16:33;9.30;;;5.10;;
68310;SDS011;55157;51.036;17.058;2023-07-09T00:19:00;7.82;;;5.30;;
68310;SDS011;55157;51.036;17.058;2023-07-09T00:21:25;11.70;;;5.78;;
68310;SDS011;55157;51.036;17.058;2023-07-09T00:23:50;7.72;;;5.38;;
68310;SDS011;55157;51.036;17.058;2023-07-09T00:26:16;8.52;;;5.00;;
68310;SDS011;55157;51.036;17.058;2023-07-09T00:28:42;8.63;;;4.60;;
68310;SDS011;55157;51.036;17.058;2023-07-09T00:31:07;13.52;;;5.50;;
68310;SDS011;55157;51.036;17.058;2023-07-09T00:33:34;11.05;;;5.57;;
68310;SDS011;55157;51.036;17.058;2023-07-09T00:36:00;12.02;;;5.50;;
68310;SDS011;55157;51.036;17.058;2023-07-09T00:38:26;11.98;;;5.13;;
68310;SDS011;55157;51.036;17.058;2023-07-09T00:40:58;8.93;;;5.53;;
68310;SDS011;55157;51.036;17.058;2023-07-09T00:43:27;10.30;;;5.75;;
68310;SDS011;55157;51.036;17.058;2023-07-09T00:48:34;8.43;;;5.32;;
68310;SDS011;55157;51.036;17.058;2023-07-09T00:51:01;8.63;;;6.07;;
68310;SDS011;55157;51.036;17.058;2023-07-09T00:53:27;16.05;;;6.50;;
68310;SDS011;55157;51.036;17.058;2023-07-09T00:55:54;10.70;;;6.10;;
68310;SDS011;55157;51.036;17.058;2023-07-09T00:58:22;11.10;;;6.07;;
68310;SDS011;55157;51.036;17.058;2023-07-09T01:00:49;16.20;;;6.70;;
68310;SDS011;55157;51.036;17.058;2023-07-09T01:03:19;13.57;;;6.30;;
68310;SDS011;55157;51.036;17.058;2023-07-09T01:05:46;12.27;;;6.10;;
68310;SDS011;55157;51.036;17.058;2023-07-09T01:08:13;12.73;;;6.40;;
68310;SDS011;55157;51.036;17.058;2023-07-09T01:10:38;9.52;;;6.47;;
68310;SDS011;55157;51.036;17.058;2023-07-09T01:13:04;10.82;;;6.45;;
68310;SDS011;55157;51.036;17.058;2023-07-09T01:15:29;16.75;;;7.25;;
68310;SDS011;55157;51.036;17.058;2023-07-09T01:17:54;12.90;;;7.13;;
68310;SDS011;55157;51.036;17.058;2023-07-09T01:20:20;14.75;;;6.70;;
68310;SDS011;55157;51.036;17.058;2023-07-09T01:22:48;11.70;;;6.70;;
68310;SDS011;55157;51.036;17.058;2023-07-09T01:25:14;13.40;;;6.10;;
68310;SDS011;55157;51.036;17.058;2023-07-09T01:27:40;9.98;;;6.55;;
68310;SDS011;55157;51.036;17.058;2023-07-09T01:30:06;12.15;;;6.50;;
68310;SDS011;55157;51.036;17.058;2023-07-09T01:32:32;18.50;;;7.05;;
68310;SDS011;55157;51.036;17.058;2023-07-09T01:34:58;11.45;;;7.18;;
68310;SDS011;55157;51.036;17.058;2023-07-09T01:37:24;9.07;;;6.38;;
68310;SDS011;55157;51.036;17.058;2023-07-09T01:39:52;19.33;;;7.70;;
68310;SDS011;55157;51.036;17.058;2023-07-09T01:42:18;16.02;;;7.07;;
68310;SDS011;55157;51.036;17.058;2023-07-09T01:44:43;11.80;;;6.80;;
68310;SDS011;55157;51.036;17.058;2023-07-09T01:47:09;11.77;;;7.57;;
68310;SDS011;55157;51.036;17.058;2023-07-09T01:49:34;9.50;;;6.75;;
68310;SDS011;55157;51.036;17.058;2023-07-09T01:51:59;13.48;;;7.32;;
68310;SDS011;55157;51.036;17.058;2023-07-09T01:54:25;10.60;;;6.63;;
68310;SDS011;55157;51.036;17.058;2023-07-09T01:56:52;12.02;;;6.00;;
68310;SDS011;55157;51.036;17.058;2023-07-09T01:59:17;15.63;;;6.88;;
68310;SDS011;55157;51.036;17.058;2023-07-09T02:01:42;18.70;;;7.25;;
68310;SDS011;55157;51.036;17.058;2023-07-09T02:04:07;13.00;;;7.03;;
68310;SDS011;55157;51.036;17.058;2023-07-09T02:06:33;13.95;;;6.88;;
68310;SDS011;55157;51.036;17.058;2023-07-09T02:08:58;14.25;;;6.63;;
68310;SDS011;55157;51.036;17.058;2023-07-09T02:11:23;15.50;;;6.70;;
68310;SDS011;55157;51.036;17.058;2023-07-09T02:13:50;10.48;;;6.70;;
68310;SDS011;55157;51.036;17.058;2023-07-09T02:16:15;10.25;;;7.78;;
68310;SDS011;55157;51.036;17.058;2023-07-09T02:18:40;14.55;;;7.65;;
68310;SDS011;55157;51.036;17.058;2023-07-09T02:21:06;13.88;;;7.30;;
68310;SDS011;55157;51.036;17.058;2023-07-09T02:23:31;10.40;;;6.13;;
68310;SDS011;55157;51.036;17.058;2023-07-09T02:25:56;9.48;;;6.22;;
68310;SDS011;55157;51.036;17.058;2023-07-09T02:28:21;11.38;;;6.65;;
68310;SDS011;55157;51.036;17.058;2023-07-09T02:30:48;12.48;;;7.47;;
68310;SDS011;55157;51.036;17.058;2023-07-09T02:33:13;11.68;;;7.22;;
68310;SDS011;55157;51.036;17.058;2023-07-09T02:35:39;7.55;;;6.18;;
68310;SDS011;55157;51.036;17.058;2023-07-09T02:38:04;14.68;;;7.43;;
68310;SDS011;55157;51.036;17.058;2023-07-09T02:40:29;8.68;;;6.70;;
68310;SDS011;55157;51.036;17.058;2023-07-09T02:42:54;15.70;;;7.32;;
68310;SDS011;55157;51.036;17.058;2023-07-09T02:45:20;11.02;;;7.22;;
68310;SDS011;55157;51.036;17.058;2023-07-09T02:47:46;12.48;;;6.95;;
68310;SDS011;55157;51.036;17.058;2023-07-09T02:50:12;11.57;;;7.10;;
68310;SDS011;55157;51.036;17.058;2023-07-09T02:52:37;11.10;;;7.75;;
68310;SDS011;55157;51.036;17.058;2023-07-09T02:55:02;17.10;;;7.72;;
68310;SDS011;55157;51.036;17.058;2023-07-09T02:57:28;12.00;;;7.03;;
68310;SDS011;55157;51.036;17.058;2023-07-09T02:59:53;9.95;;;6.63;;
68310;SDS011;55157;51.036;17.058;2023-07-09T03:02:18;10.18;;;7.32;;
68310;SDS011;55157;51.036;17.058;2023-07-09T03:04:45;13.50;;;7.38;;
68310;SDS011;55157;51.036;17.058;2023-07-09T03:07:10;13.43;;;6.45;;
68310;SDS011;55157;51.036;17.058;2023-07-09T03:09:36;14.18;;;7.45;;
68310;SDS011;55157;51.036;17.058;2023-07-09T03:12:01;9.18;;;6.68;;
68310;SDS011;55157;51.036;17.058;2023-07-09T03:14:26;15.65;;;7.88;;
68310;SDS011;55157;51.036;17.058;2023-07-09T03:16:51;12.23;;;7.72;;
68310;SDS011;55157;51.036;17.058;2023-07-09T03:19:17;10.93;;;6.68;;
68310;SDS011;55157;51.036;17.058;2023-07-09T03:21:43;8.93;;;6.90;;
68310;SDS011;55157;51.036;17.058;2023-07-09T03:24:09;12.77;;;6.80;;
68310;SDS011;55157;51.036;17.058;2023-07-09T03:26:34;11.38;;;7.38;;
68310;SDS011;55157;51.036;17.058;2023-07-09T03:28:59;13.55;;;7.07;;
68310;SDS011;55157;51.036;17.058;2023-07-09T03:31:24;16.17;;;7.55;;
68310;SDS011;55157;51.036;17.058;2023-07-09T03:33:50;12.77;;;7.20;;
68310;SDS011;55157;51.036;17.058;2023-07-09T03:36:16;11.32;;;7.43;;
68310;SDS011;55157;51.036;17.058;2023-07-09T03:38:43;14.65;;;7.40;;
68310;SDS011;55157;51.036;17.058;2023-07-09T03:41:08;11.07;;;7.53;;
68310;SDS011;55157;51.036;17.058;2023-07-09T03:43:33;12.50;;;7.07;;
68310;SDS011;55157;51.036;17.058;2023-07-09T03:45:58;11.07;;;7.28;;
68310;SDS011;55157;51.036;17.058;2023-07-09T03:48:24;12.48;;;7.55;;
68310;SDS011;55157;51.036;17.058;2023-07-09T03:50:49;10.27;;;7.13;;
68310;SDS011;55157;51.036;17.058;2023-07-09T03:53:14;14.65;;;7.38;;
68310;SDS011;55157;51.036;17.058;2023-07-09T03:55:42;11.43;;;7.55;;
68310;SDS011;55157;51.036;17.058;2023-07-09T03:58:07;8.32;;;6.75;;
68310;SDS011;55157;51.036;17.058;2023-07-09T04:00:33;13.18;;;7.32;;
68310;SDS011;55157;51.036;17.058;2023-07-09T04:02:58;12.25;;;7.38;;
68310;SDS011;55157;51.036;17.058;2023-07-09T04:05:23;10.57;;;6.85;;
68310;SDS011;55157;51.036;17.058;2023-07-09T04:07:49;11.35;;;7.40;;
68310;SDS011;55157;51.036;17.058;2023-07-09T04:10:14;11.27;;;6.57;;
68310;SDS011;55157;51.036;17.058;2023-07-09T04:12:41;10.38;;;7.03;;
68310;SDS011;55157;51.036;17.058;2023-07-09T04:15:06;14.55;;;7.35;;
68310;SDS011;55157;51.036;17.058;2023-07-09T04:17:32;10.18;;;7.28;;
68310;SDS011;55157;51.036;17.058;2023-07-09T04:19:57;10.20;;;7.53;;
68310;SDS011;55157;51.036;17.058;2023-07-09T04:22:22;11.90;;;7.43;;
68310;SDS011;55157;51.036;17.058;2023-07-09T04:24:48;10.88;;;6.80;;
68310;SDS011;55157;51.036;17.058;2023-07-09T04:27:13;15.95;;;7.43;;
68310;SDS011;55157;51.036;17.058;2023-07-09T04:29:40;12.15;;;6.70;;
68310;SDS011;55157;51.036;17.058;2023-07-09T04:32:05;10.60;;;7.00;;
68310;SDS011;55157;51.036;17.058;2023-07-09T04:34:31;10.82;;;6.53;;
68310;SDS011;55157;51.036;17.058;2023-07-09T04:36:56;12.88;;;7.60;;
68310;SDS011;55157;51.036;17.058;2023-07-09T04:39:21;10.90;;;6.65;;
68310;SDS011;55157;51.036;17.058;2023-07-09T04:41:47;15.13;;;7.03;;
68310;SDS011;55157;51.036;17.058;2023-07-09T04:44:12;15.68;;;7.85;;
68310;SDS011;55157;51.036;17.058;2023-07-09T04:46:39;10.88;;;7.72;;
68310;SDS011;55157;51.036;17.058;2023-07-09T04:49:04;10.05;;;6.45;;
68310;SDS011;55157;51.036;17.058;2023-07-09T04:51:29;18.80;;;8.82;;
68310;SDS011;55157;51.036;17.058;2023-07-09T04:53:54;12.55;;;7.75;;
68310;SDS011;55157;51.036;17.058;2023-07-09T04:56:20;11.27;;;7.53;;
68310;SDS011;55157;51.036;17.058;2023-07-09T04:58:45;16.25;;;8.75;;
68310;SDS011;55157;51.036;17.058;2023-07-09T05:01:10;16.52;;;8.63;;
68310;SDS011;55157;51.036;17.058;2023-07-09T05:03:37;16.50;;;9.45;;
68310;SDS011;55157;51.036;17.058;2023-07-09T05:06:03;16.02;;;8.63;;
68310;SDS011;55157;51.036;17.058;2023-07-09T05:08:28;16.85;;;9.55;;
68310;SDS011;55157;51.036;17.058;2023-07-09T05:10:53;13.45;;;10.02;;
68310;SDS011;55157;51.036;17.058;2023-07-09T05:13:19;15.25;;;9.88;;
68310;SDS011;55157;51.036;17.058;2023-07-09T05:15:45;15.25;;;8.20;;
68310;SDS011;55157;51.036;17.058;2023-07-09T05:18:10;15.88;;;8.40;;
68310;SDS011;55157;51.036;17.058;2023-07-09T05:20:37;11.48;;;7.35;;
68310;SDS011;55157;51.036;17.058;2023-07-09T05:23:03;13.20;;;7.22;;
68310;SDS011;55157;51.036;17.058;2023-07-09T05:25:28;11.73;;;8.07;;
68310;SDS011;55157;51.036;17.058;2023-07-09T05:27:53;18.60;;;8.77;;
68310;SDS011;55157;51.036;17.058;2023-07-09T05:30:19;14.40;;;8.60;;
68310;SDS011;55157;51.036;17.058;2023-07-09T05:32:44;14.10;;;8.13;;
68310;SDS011;55157;51.036;17.058;2023-07-09T05:35:10;14.95;;;6.97;;
68310;SDS011;55157;51.036;17.058;2023-07-09T05:37:36;16.23;;;8.07;;
68310;SDS011;55157;51.036;17.058;2023-07-09T05:40:02;11.75;;;7.82;;
68310;SDS011;55157;51.036;17.058;2023-07-09T05:42:28;17.17;;;7.50;;
68310;SDS011;55157;51.036;17.058;2023-07-09T05:44:53;13.00;;;7.15;;
68310;SDS011;55157;51.036;17.058;2023-07-09T05:47:18;16.30;;;6.90;;
68310;SDS011;55157;51.036;17.058;2023-07-09T05:49:43;17.95;;;7.90;;
68310;SDS011;55157;51.036;17.058;2023-07-09T05:52:08;10.85;;;7.50;;
68310;SDS011;55157;51.036;17.058;2023-07-09T05:54:35;18.88;;;7.85;;
68310;SDS011;55157;51.036;17.058;2023-07-09T05:57:00;12.13;;;7.63;;
68310;SDS011;55157;51.036;17.058;2023-07-09T05:59:26;13.13;;;7.47;;
68310;SDS011;55157;51.036;17.058;2023-07-09T06:01:51;17.98;;;7.90;;
68310;SDS011;55157;51.036;17.058;2023-07-09T06:04:16;12.52;;;7.95;;
68310;SDS011;55157;51.036;17.058;2023-07-09T06:06:42;11.88;;;7.35;;
68310;SDS011;55157;51.036;17.058;2023-07-09T06:09:07;15.98;;;7.07;;
68310;SDS011;55157;51.036;17.058;2023-07-09T06:11:34;13.93;;;7.18;;
68310;SDS011;55157;51.036;17.058;2023-07-09T06:13:59;12.35;;;6.68;;
68310;SDS011;55157;51.036;17.058;2023-07-09T06:16:24;16.48;;;7.80;;
68310;SDS011;55157;51.036;17.058;2023-07-09T06:18:49;15.82;;;7.72;;
68310;SDS011;55157;51.036;17.058;2023-07-09T06:21:15;12.32;;;6.95;;
68310;SDS011;55157;51.036;17.058;2023-07-09T06:23:40;11.20;;;7.22;;
68310;SDS011;55157;51.036;17.058;2023-07-09T06:26:05;14.18;;;6.45;;
68310;SDS011;55157;51.036;17.058;2023-07-09T06:28:32;12.48;;;6.88;;
68310;SDS011;55157;51.036;17.058;2023-07-09T06:30:57;18.13;;;7.13;;
68310;SDS011;55157;51.036;17.058;2023-07-09T06:33:23;11.43;;;6.88;;
68310;SDS011;55157;51.036;17.058;2023-07-09T06:35:49;11.70;;;7.22;;
68310;SDS011;55157;51.036;17.058;2023-07-09T06:38:14;14.65;;;6.70;;
68310;SDS011;55157;51.036;17.058;2023-07-09T06:40:39;13.18;;;7.45;;
68310;SDS011;55157;51.036;17.058;2023-07-09T06:43:05;12.15;;;6.78;;
68310;SDS011;55157;51.036;17.058;2023-07-09T06:45:31;16.00;;;7.65;;
68310;SDS011;55157;51.036;17.058;2023-07-09T06:47:57;14.45;;;7.22;;
68310;SDS011;55157;51.036;17.058;2023-07-09T06:50:22;13.52;;;7.53;;
68310;SDS011;55157;51.036;17.058;2023-07-09T06:52:47;16.50;;;7.43;;
68310;SDS011;55157;51.036;17.058;2023-07-09T06:55:12;12.27;;;6.07;;
68310;SDS011;55157;51.036;17.058;2023-07-09T06:57:38;11.05;;;7.35;;
68310;SDS011;55157;51.036;17.058;2023-07-09T07:00:03;16.75;;;7.32;;
68310;SDS011;55157;51.036;17.058;2023-07-09T07:02:30;13.57;;;6.03;;
68310;SDS011;55157;51.036;17.058;2023-07-09T07:04:55;8.20;;;5.75;;
68310;SDS011;55157;51.036;17.058;2023-07-09T07:07:21;12.07;;;5.97;;
68310;SDS011;55157;51.036;17.058;2023-07-09T07:09:46;11.38;;;6.28;;
68310;SDS011;55157;51.036;17.058;2023-07-09T07:12:13;16.05;;;6.50;;
68310;SDS011;55157;51.036;17.058;2023-07-09T07:14:44;10.05;;;5.93;;
68310;SDS011;55157;51.036;17.058;2023-07-09T07:17:09;9.18;;;5.70;;
68310;SDS011;55157;51.036;17.058;2023-07-09T07:19:36;12.18;;;5.15;;
68310;SDS011;55157;51.036;17.058;2023-07-09T07:22:01;11.40;;;6.35;;
68310;SDS011;55157;51.036;17.058;2023-07-09T07:24:27;7.63;;;5.28;;
68310;SDS011;55157;51.036;17.058;2023-07-09T07:26:52;8.27;;;6.30;;
68310;SDS011;55157;51.036;17.058;2023-07-09T07:29:17;9.93;;;5.10;;
68310;SDS011;55157;51.036;17.058;2023-07-09T07:31:42;9.60;;;6.32;;
68310;SDS011;55157;51.036;17.058;2023-07-09T07:34:08;13.57;;;5.67;;
68310;SDS011;55157;51.036;17.058;2023-07-09T07:36:34;6.00;;;4.57;;
68310;SDS011;55157;51.036;17.058;2023-07-09T07:39:00;9.25;;;5.35;;
68310;SDS011;55157;51.036;17.058;2023-07-09T07:41:25;6.47;;;4.77;;
68310;SDS011;55157;51.036;17.058;2023-07-09T07:43:50;11.65;;;5.10;;
68310;SDS011;55157;51.036;17.058;2023-07-09T07:46:15;6.40;;;4.53;;
68310;SDS011;55157;51.036;17.058;2023-07-09T07:48:41;6.40;;;4.53;;
68310;SDS011;55157;51.036;17.058;2023-07-09T07:51:06;9.70;;;4.63;;
68310;SDS011;55157;51.036;17.058;2023-07-09T07:53:32;8.67;;;5.30;;
68310;SDS011;55157;51.036;17.058;2023-07-09T07:55:58;7.63;;;4.90;;
68310;SDS011;55157;51.036;17.058;2023-07-09T07:58:23;12.25;;;4.60;;
68310;SDS011;55157;51.036;17.058;2023-07-09T08:00:48;9.23;;;4.77;;
68310;SDS011;55157;51.036;17.058;2023-07-09T08:03:14;10.68;;;4.30;;
68310;SDS011;55157;51.036;17.058;2023-07-09T08:05:39;8.43;;;4.10;;
68310;SDS011;55157;51.036;17.058;2023-07-09T08:08:04;8.95;;;4.22;;
68310;SDS011;55157;51.036;17.058;2023-07-09T08:10:31;7.88;;;4.88;;
68310;SDS011;55157;51.036;17.058;2023-07-09T08:12:56;9.88;;;4.30;;
68310;SDS011;55157;51.036;17.058;2023-07-09T08:15:22;8.57;;;4.47;;
68310;SDS011;55157;51.036;17.058;2023-07-09T08:17:47;6.22;;;3.97;;
68310;SDS011;55157;51.036;17.058;2023-07-09T08:20:12;7.80;;;3.67;;
68310;SDS011;55157;51.036;17.058;2023-07-09T08:22:37;6.13;;;4.23;;
68310;SDS011;55157;51.036;17.058;2023-07-09T08:25:03;6.27;;;3.60;;
68310;SDS011;55157;51.036;17.058;2023-07-09T08:27:30;8.30;;;4.07;;
68310;SDS011;55157;51.036;17.058;2023-07-09T08:29:55;9.80;;;3.80;;
68310;SDS011;55157;51.036;17.058;2023-07-09T08:32:20;6.60;;;4.18;;
68310;SDS011;55157;51.036;17.058;2023-07-09T08:34:45;9.13;;;3.83;;
68310;SDS011;55157;51.036;17.058;2023-07-09T08:37:11;6.30;;;4.03;;
68310;SDS011;55157;51.036;17.058;2023-07-09T08:39:36;11.20;;;4.90;;
68310;SDS011;55157;51.036;17.058;2023-07-09T08:42:02;11.57;;;4.50;;
68310;SDS011;55157;51.036;17.058;2023-07-09T08:44:35;8.00;;;4.55;;
68310;SDS011;55157;51.036;17.058;2023-07-09T08:47:03;6.93;;;4.95;;
68310;SDS011;55157;51.036;17.058;2023-07-09T08:49:35;6.75;;;4.60;;
68310;SDS011;55157;51.036;17.058;2023-07-09T08:52:02;7.03;;;4.40;;
68310;SDS011;55157;51.036;17.058;2023-07-09T08:54:29;5.10;;;4.28;;
68310;SDS011;55157;51.036;17.058;2023-07-09T08:56:59;11.98;;;4.78;;
68310;SDS011;55157;51.036;17.058;2023-07-09T08:59:24;11.90;;;4.30;;
68310;SDS011;55157;51.036;17.058;2023-07-09T09:01:52;10.35;;;4.32;;
68310;SDS011;55157;51.036;17.058;2023-07-09T09:04:19;8.82;;;3.22;;
68310;SDS011;55157;51.036;17.058;2023-07-09T09:06:45;4.53;;;2.92;;
68310;SDS011;55157;51.036;17.058;2023-07-09T09:09:15;6.47;;;3.17;;
68310;SDS011;55157;51.036;17.058;2023-07-09T09:11:42;7.93;;;3.45;;
68310;SDS011;55157;51.036;17.058;2023-07-09T09:14:13;7.75;;;2.80;;
68310;SDS011;55157;51.036;17.058;2023-07-09T09:16:41;12.57;;;3.20;;
68310;SDS011;55157;51.036;17.058;2023-07-09T09:19:12;7.00;;;3.05;;
68310;SDS011;55157;51.036;17.058;2023-07-09T09:21:40;6.10;;;3.03;;
68310;SDS011;55157;51.036;17.058;2023-07-09T09:24:11;4.72;;;3.00;;
68310;SDS011;55157;51.036;17.058;2023-07-09T09:26:37;4.18;;;2.67;;
68310;SDS011;55157;51.036;17.058;2023-07-09T09:29:07;6.68;;;2.55;;
68310;SDS011;55157;51.036;17.058;2023-07-09T09:31:35;3.65;;;2.97;;
68310;SDS011;55157;51.036;17.058;2023-07-09T09:34:00;8.23;;;3.50;;
68310;SDS011;55157;51.036;17.058;2023-07-09T09:36:27;7.10;;;2.67;;
68310;SDS011;55157;51.036;17.058;2023-07-09T09:38:52;3.95;;;2.40;;
68310;SDS011;55157;51.036;17.058;2023-07-09T09:41:18;5.47;;;3.00;;
68310;SDS011;55157;51.036;17.058;2023-07-09T09:43:45;5.93;;;2.67;;
68310;SDS011;55157;51.036;17.058;2023-07-09T09:46:13;5.78;;;2.90;;
68310;SDS011;55157;51.036;17.058;2023-07-09T09:48:41;6.05;;;2.92;;
68310;SDS011;55157;51.036;17.058;2023-07-09T09:51:09;6.63;;;2.70;;
68310;SDS011;55157;51.036;17.058;2023-07-09T09:53:37;5.57;;;2.67;;
68310;SDS011;55157;51.036;17.058;2023-07-09T09:56:03;11.43;;;3.33;;
68310;SDS011;55157;51.036;17.058;2023-07-09T09:58:29;5.28;;;2.33;;
68310;SDS011;55157;51.036;17.058;2023-07-09T10:00:55;5.53;;;2.50;;
68310;SDS011;55157;51.036;17.058;2023-07-09T10:03:21;8.20;;;2.40;;
68310;SDS011;55157;51.036;17.058;2023-07-09T10:05:50;13.52;;;2.97;;
68310;SDS011;55157;51.036;17.058;2023-07-09T10:08:17;9.48;;;2.65;;
68310;SDS011;55157;51.036;17.058;2023-07-09T10:10:48;5.53;;;2.50;;
68310;SDS011;55157;51.036;17.058;2023-07-09T10:13:18;7.72;;;2.50;;
68310;SDS011;55157;51.036;17.058;2023-07-09T10:15:45;5.75;;;2.38;;
68310;SDS011;55157;51.036;17.058;2023-07-09T10:18:13;3.47;;;2.30;;
68310;SDS011;55157;51.036;17.058;2023-07-09T10:20:44;6.33;;;2.60;;
68310;SDS011;55157;51.036;17.058;2023-07-09T10:23:13;5.13;;;2.95;;
68310;SDS011;55157;51.036;17.058;2023-07-09T10:25:45;8.95;;;2.72;;
68310;SDS011;55157;51.036;17.058;2023-07-09T10:28:24;4.22;;;2.38;;
68310;SDS011;55157;51.036;17.058;2023-07-09T10:30:55;4.30;;;2.58;;
68310;SDS011;55157;51.036;17.058;2023-07-09T10:33:25;3.75;;;2.28;;
68310;SDS011;55157;51.036;17.058;2023-07-09T10:35:54;8.55;;;3.00;;
68310;SDS011;55157;51.036;17.058;2023-07-09T10:38:27;6.20;;;2.10;;
68310;SDS011;55157;51.036;17.058;2023-07-09T10:40:56;4.47;;;2.13;;
68310;SDS011;55157;51.036;17.058;2023-07-09T10:43:25;6.55;;;2.13;;
68310;SDS011;55157;51.036;17.058;2023-07-09T10:51:00;6.15;;;2.20;;
68310;SDS011;55157;51.036;17.058;2023-07-09T10:53:28;4.13;;;2.00;;
68310;SDS011;55157;51.036;17.058;2023-07-09T10:55:55;8.80;;;2.30;;
68310;SDS011;55157;51.036;17.058;2023-07-09T10:58:25;5.43;;;2.08;;
68310;SDS011;55157;51.036;17.058;2023-07-09T11:00:53;9.63;;;2.50;;
68310;SDS011;55157;51.036;17.058;2023-07-09T11:03:20;7.25;;;2.40;;
68310;SDS011;55157;51.036;17.058;2023-07-09T11:05:46;6.70;;;2.10;;
68310;SDS011;55157;51.036;17.058;2023-07-09T11:08:13;6.68;;;2.38;;
68310;SDS011;55157;51.036;17.058;2023-07-09T11:10:40;7.15;;;2.50;;
68310;SDS011;55157;51.036;17.058;2023-07-09T11:13:12;10.77;;;2.45;;
68310;SDS011;55157;51.036;17.058;2023-07-09T11:15:39;2.58;;;1.80;;
68310;SDS011;55157;51.036;17.058;2023-07-09T11:18:09;3.22;;;1.98;;
68310;SDS011;55157;51.036;17.058;2023-07-09T11:20:36;3.08;;;2.10;;
68310;SDS011;55157;51.036;17.058;2023-07-09T11:23:06;8.32;;;2.20;;
68310;SDS011;55157;51.036;17.058;2023-07-09T11:25:40;2.38;;;1.80;;
68310;SDS011;55157;51.036;17.058;2023-07-09T11:28:06;20.42;;;2.75;;
68310;SDS011;55157;51.036;17.058;2023-07-09T11:30:33;8.00;;;2.40;;
68310;SDS011;55157;51.036;17.058;2023-07-09T11:32:59;11.40;;;2.05;;
68310;SDS011;55157;51.036;17.058;2023-07-09T11:35:26;3.78;;;1.95;;
68310;SDS011;55157;51.036;17.058;2023-07-09T11:37:52;4.13;;;2.20;;
68310;SDS011;55157;51.036;17.058;2023-07-09T11:40:17;3.92;;;1.85;;
68310;SDS011;55157;51.036;17.058;2023-07-09T11:42:50;8.15;;;2.65;;
68310;SDS011;55157;51.036;17.058;2023-07-09T11:45:16;5.50;;;2.10;;
68310;SDS011;55157;51.036;17.058;2023-07-09T11:47:43;6.35;;;1.90;;
68310;SDS011;55157;51.036;17.058;2023-07-09T11:50:13;2.42;;;1.60;;
68310;SDS011;55157;51.036;17.058;2023-07-09T11:52:43;4.07;;;1.98;;
68310;SDS011;55157;51.036;17.058;2023-07-09T11:57:36;8.77;;;2.40;;
68310;SDS011;55157;51.036;17.058;2023-07-09T12:00:01;4.40;;;2.57;;
68310;SDS011;55157;51.036;17.058;2023-07-09T12:02:29;3.80;;;2.20;;
68310;SDS011;55157;51.036;17.058;2023-07-09T12:04:56;3.72;;;1.95;;
68310;SDS011;55157;51.036;17.058;2023-07-09T12:07:22;2.43;;;1.83;;
68310;SDS011;55157;51.036;17.058;2023-07-09T12:09:49;3.83;;;2.30;;
68310;SDS011;55157;51.036;17.058;2023-07-09T12:12:16;5.85;;;2.40;;
68310;SDS011;55157;51.036;17.058;2023-07-09T12:14:42;3.33;;;2.35;;
68310;SDS011;55157;51.036;17.058;2023-07-09T12:17:07;3.30;;;2.20;;
68310;SDS011;55157;51.036;17.058;2023-07-09T12:19:33;4.47;;;2.60;;
68310;SDS011;55157;51.036;17.058;2023-07-09T12:21:58;5.13;;;2.30;;
68310;SDS011;55157;51.036;17.058;2023-07-09T12:24:24;3.70;;;2.70;;
68310;SDS011;55157;51.036;17.058;2023-07-09T12:26:53;12.25;;;2.60;;
68310;SDS011;55157;51.036;17.058;2023-07-09T12:29:18;8.95;;;2.70;;
68310;SDS011;55157;51.036;17.058;2023-07-09T12:31:44;6.53;;;2.47;;
68310;SDS011;55157;51.036;17.058;2023-07-09T12:34:10;7.22;;;2.75;;
68310;SDS011;55157;51.036;17.058;2023-07-09T12:36:36;8.27;;;2.65;;
68310;SDS011;55157;51.036;17.058;2023-07-09T12:39:03;9.35;;;2.60;;
68310;SDS011;55157;51.036;17.058;2023-07-09T12:41:29;8.32;;;2.63;;
68310;SDS011;55157;51.036;17.058;2023-07-09T12:43:57;3.65;;;2.63;;
68310;SDS011;55157;51.036;17.058;2023-07-09T12:46:23;3.28;;;2.63;;
68310;SDS011;55157;51.036;17.058;2023-07-09T12:48:49;22.92;;;3.22;;
68310;SDS011;55157;51.036;17.058;2023-07-09T12:51:15;7.50;;;2.78;;
68310;SDS011;55157;51.036;17.058;2023-07-09T12:53:41;6.57;;;2.45;;
68310;SDS011;55157;51.036;17.058;2023-07-09T12:56:11;7.30;;;2.30;;
68310;SDS011;55157;51.036;17.058;2023-07-09T12:58:37;10.13;;;3.13;;
68310;SDS011;55157;51.036;17.058;2023-07-09T13:01:05;8.38;;;2.65;;
68310;SDS011;55157;51.036;17.058;2023-07-09T13:03:31;7.93;;;2.70;;
68310;SDS011;55157;51.036;17.058;2023-07-09T13:05:58;4.25;;;2.53;;
68310;SDS011;55157;51.036;17.058;2023-07-09T13:08:24;5.38;;;2.80;;
68310;SDS011;55157;51.036;17.058;2023-07-09T13:10:49;3.63;;;2.90;;
68310;SDS011;55157;51.036;17.058;2023-07-09T13:13:14;10.27;;;2.50;;
68310;SDS011;55157;51.036;17.058;2023-07-09T13:15:40;4.00;;;2.60;;
68310;SDS011;55157;51.036;17.058;2023-07-09T13:18:10;3.00;;;2.40;;
68310;SDS011;55157;51.036;17.058;2023-07-09T13:20:36;10.27;;;2.45;;
68310;SDS011;55157;51.036;17.058;2023-07-09T13:23:04;11.50;;;2.35;;
68310;SDS011;55157;51.036;17.058;2023-07-09T13:25:33;9.77;;;3.00;;
68310;SDS011;55157;51.036;17.058;2023-07-09T13:27:58;8.53;;;2.90;;
68310;SDS011;55157;51.036;17.058;2023-07-09T13:30:24;22.67;;;2.93;;
68310;SDS011;55157;51.036;17.058;2023-07-09T13:32:49;2.75;;;2.25;;
68310;SDS011;55157;51.036;17.058;2023-07-09T13:35:17;9.97;;;3.00;;
68310;SDS011;55157;51.036;17.058;2023-07-09T13:37:43;12.20;;;3.25;;
68310;SDS011;55157;51.036;17.058;2023-07-09T13:40:09;2.78;;;2.50;;
68310;SDS011;55157;51.036;17.058;2023-07-09T13:42:35;6.47;;;2.60;;
68310;SDS011;55157;51.036;17.058;2023-07-09T13:45:01;4.63;;;2.40;;
68310;SDS011;55157;51.036;17.058;2023-07-09T13:47:26;6.90;;;2.73;;
68310;SDS011;55157;51.036;17.058;2023-07-09T13:49:51;7.57;;;2.43;;
68310;SDS011;55157;51.036;17.058;2023-07-09T13:52:18;5.20;;;2.80;;
68310;SDS011;55157;51.036;17.058;2023-07-09T13:54:44;2.92;;;2.22;;
68310;SDS011;55157;51.036;17.058;2023-07-09T13:57:11;3.38;;;2.65;;
68310;SDS011;55157;51.036;17.058;2023-07-09T13:59:37;14.38;;;2.97;;
68310;SDS011;55157;51.036;17.058;2023-07-09T14:02:05;4.72;;;3.03;;
68310;SDS011;55157;51.036;17.058;2023-07-09T14:04:37;10.90;;;2.65;;
68310;SDS011;55157;51.036;17.058;2023-07-09T14:07:02;4.27;;;2.57;;
68310;SDS011;55157;51.036;17.058;2023-07-09T14:09:29;9.65;;;3.25;;
68310;SDS011;55157;51.036;17.058;2023-07-09T14:11:54;7.15;;;3.83;;
68310;SDS011;55157;51.036;17.058;2023-07-09T14:14:20;7.97;;;2.60;;
68310;SDS011;55157;51.036;17.058;2023-07-09T14:16:46;5.35;;;2.85;;
68310;SDS011;55157;51.036;17.058;2023-07-09T14:19:12;4.82;;;2.75;;
68310;SDS011;55157;51.036;17.058;2023-07-09T14:21:38;3.78;;;2.50;;
68310;SDS011;55157;51.036;17.058;2023-07-09T14:24:07;7.70;;;3.20;;
68310;SDS011;55157;51.036;17.058;2023-07-09T14:26:41;8.52;;;2.70;;
68310;SDS011;55157;51.036;17.058;2023-07-09T14:29:06;3.63;;;2.83;;
68310;SDS011;55157;51.036;17.058;2023-07-09T14:31:32;4.55;;;2.80;;
68310;SDS011;55157;51.036;17.058;2023-07-09T14:33:57;4.45;;;2.75;;